Time;durP1;ratioP1;P1;durP2;ratioP2;P2;SDS_P1;SDS_P2;PMS_P1;PMS_P2;Temp;Humidity;BMP_temperature;BMP_pressure;BME280_temperature;BME280_humidity;BME280_pressure;Samples;Min_cycle;Max_cycle;Signal;HPM_P1;HPM_P2
2022/12/02 00:00:01;;;;;;;35.07;22.77;;;;;;;3.32;100.00;96568.03;5030059;28;105313;-64
2022/12/02 00:02:32;;;;;;;35.90;22.23;;;;;;;3.36;100.00;96564.00;5032025;27;102053;-64
2022/12/02 00:05:05;;;;;;;35.60;22.37;;;;;;;3.36;100.00;96569.25;5034885;27;102517;-64
2022/12/02 00:07:32;;;;;;;35.43;21.60;;;;;;;3.34;100.00;96570.47;5030194;28;102091;-64
2022/12/02 00:09:59;;;;;;;36.70;22.13;;;;;;;3.32;100.00;96565.41;5031832;28;102369;-64
2022/12/02 00:12:27;;;;;;;35.90;22.33;;;;;;;3.29;100.00;96562.38;5031078;27;102537;-64
2022/12/02 00:14:57;;;;;;;37.43;22.97;;;;;;;3.35;100.00;96558.94;5031922;27;101736;-64
2022/12/02 00:17:25;;;;;;;37.47;22.77;;;;;;;3.33;100.00;96558.34;5030291;28;105144;-64
2022/12/02 00:19:52;;;;;;;38.10;23.07;;;;;;;3.34;100.00;96555.47;5029811;28;105897;-64
2022/12/02 00:22:26;;;;;;;36.23;22.43;;;;;;;3.28;100.00;96555.50;5031555;27;101831;-64
2022/12/02 00:24:54;;;;;;;36.47;22.17;;;;;;;3.35;100.00;96545.78;5030260;28;104827;-64
2022/12/02 00:27:21;;;;;;;38.77;22.80;;;;;;;3.40;100.00;96544.19;5033016;28;105864;-64
2022/12/02 00:29:48;;;;;;;36.37;22.30;;;;;;;3.36;100.00;96536.88;5030068;28;105638;-64
2022/12/02 00:32:16;;;;;;;38.77;22.87;;;;;;;3.24;100.00;96543.75;5029400;28;105694;-64
2022/12/02 00:34:43;;;;;;;40.10;24.07;;;;;;;3.19;100.00;96547.00;5030092;28;101838;-64
2022/12/02 00:37:09;;;;;;;37.13;23.53;;;;;;;3.19;100.00;96539.13;5031037;27;102747;-64
2022/12/02 00:39:40;;;;;;;40.67;23.37;;;;;;;3.19;100.00;96540.91;5030455;27;102600;-64
2022/12/02 00:42:07;;;;;;;36.30;22.80;;;;;;;3.22;100.00;96540.53;5031157;27;101916;-64
2022/12/02 00:47:19;;;;;;;36.00;22.50;;;;;;;3.33;100.00;96532.06;5034330;27;101869;-64
2022/12/02 00:49:46;;;;;;;37.20;22.13;;;;;;;3.38;100.00;96530.41;5029891;28;105233;-64
2022/12/02 00:52:13;;;;;;;40.10;23.33;;;;;;;3.36;100.00;96529.00;5030491;28;102545;-64
2022/12/02 00:54:42;;;;;;;41.03;24.30;;;;;;;3.41;100.00;96537.09;5029017;27;102221;-64
2022/12/02 00:57:09;;;;;;;37.93;22.53;;;;;;;3.40;100.00;96527.59;5027627;28;105295;-64
2022/12/02 00:59:36;;;;;;;36.77;22.87;;;;;;;3.35;100.00;96522.97;5028546;27;101871;-64
2022/12/02 01:02:04;;;;;;;36.97;22.70;;;;;;;3.30;100.00;96519.28;5027091;28;101987;-64
2022/12/02 01:04:31;;;;;;;34.13;21.43;;;;;;;3.21;100.00;96523.13;5010763;28;105717;-64
2022/12/02 01:06:59;;;;;;;35.50;22.07;;;;;;;3.27;100.00;96517.88;5028283;27;102667;-64
2022/12/02 01:09:27;;;;;;;39.60;22.63;;;;;;;3.17;100.00;96521.94;5030708;28;101771;-64
2022/12/02 01:11:56;;;;;;;43.67;24.50;;;;;;;3.22;100.00;96522.94;5028279;28;103141;-64
2022/12/02 01:14:22;;;;;;;39.43;23.67;;;;;;;3.17;100.00;96524.56;5029441;27;102222;-64
2022/12/02 01:16:49;;;;;;;42.90;24.73;;;;;;;3.16;100.00;96520.31;5027484;28;105481;-64
2022/12/02 01:19:17;;;;;;;42.13;23.70;;;;;;;3.14;100.00;96528.41;5026655;28;105752;-65
2022/12/02 01:21:45;;;;;;;45.20;25.90;;;;;;;3.15;100.00;96523.94;5027441;28;101908;-64
2022/12/02 01:24:12;;;;;;;45.87;24.77;;;;;;;3.14;100.00;96517.06;5011680;28;105584;-64
2022/12/02 01:26:39;;;;;;;43.53;24.57;;;;;;;3.06;100.00;96519.91;5029079;28;105744;-64
2022/12/02 01:29:09;;;;;;;44.47;25.17;;;;;;;3.15;100.00;96518.69;5029350;28;101842;-64
2022/12/02 01:31:35;;;;;;;49.80;27.17;;;;;;;3.24;100.00;96514.84;5031939;28;104076;-64
2022/12/02 01:34:02;;;;;;;50.00;27.17;;;;;;;3.22;100.00;96522.13;5030244;28;101838;-64
2022/12/02 01:36:30;;;;;;;43.90;25.33;;;;;;;3.30;100.00;96514.88;5030577;27;102364;-64
2022/12/02 01:38:57;;;;;;;43.60;24.20;;;;;;;3.38;100.00;96519.91;5028475;28;105611;-64
2022/12/02 01:41:24;;;;;;;41.67;23.80;;;;;;;3.40;100.00;96517.09;5029062;28;102100;-64
2022/12/02 01:43:52;;;;;;;43.30;24.03;;;;;;;3.42;100.00;96520.31;5030410;27;102862;-64
2022/12/02 01:46:21;;;;;;;42.80;26.27;;;;;;;3.34;100.00;96513.44;5028279;28;105611;-64
2022/12/02 01:48:49;;;;;;;45.37;24.10;;;;;;;3.19;100.00;96514.66;5029969;27;101782;-64
2022/12/02 01:51:16;;;;;;;45.33;25.43;;;;;;;3.11;100.00;96520.91;5029439;27;102301;-64
2022/12/02 01:53:46;;;;;;;48.13;24.87;;;;;;;3.22;100.00;96522.13;5031460;28;105681;-64
2022/12/02 01:56:14;;;;;;;42.17;24.80;;;;;;;3.20;100.00;96518.88;5028417;28;105704;-64
2022/12/02 01:58:40;;;;;;;52.77;26.97;;;;;;;3.09;100.00;96508.97;5027964;28;105922;-64
2022/12/02 02:04:03;;;;;;;51.57;25.90;;;;;;;2.92;100.00;96511.19;5050889;27;101681;-65
2022/12/02 02:06:33;;;;;;;49.67;25.10;;;;;;;2.87;100.00;96502.28;5044413;27;104265;-65
2022/12/02 02:09:01;;;;;;;52.23;27.30;;;;;;;2.86;100.00;96500.66;5044599;27;101754;-65
2022/12/02 02:11:29;;;;;;;54.07;27.17;;;;;;;2.88;100.00;96503.91;5044926;27;105191;-65
2022/12/02 02:14:00;;;;;;;53.17;27.27;;;;;;;2.90;100.00;96505.31;5045687;27;102642;-65
2022/12/02 02:16:27;;;;;;;51.77;28.27;;;;;;;2.87;100.00;96499.66;5046084;27;101772;-65
2022/12/02 02:18:55;;;;;;;53.23;27.40;;;;;;;2.82;100.00;96508.16;5044350;27;105192;-65
2022/12/02 02:21:26;;;;;;;53.20;28.07;;;;;;;2.80;100.00;96504.09;5044115;27;105248;-65
2022/12/02 02:23:55;;;;;;;54.83;28.07;;;;;;;2.82;100.00;96504.69;5047964;27;101857;-65
2022/12/02 02:26:23;;;;;;;56.93;27.97;;;;;;;2.84;100.00;96505.31;5045225;27;102669;-65
2022/12/02 02:28:50;;;;;;;53.83;27.50;;;;;;;2.87;100.00;96492.59;5044562;27;101881;-65
2022/12/02 02:31:18;;;;;;;53.67;27.50;;;;;;;2.91;100.00;96498.25;5044398;27;104862;-64
2022/12/02 02:33:47;;;;;;;51.23;26.10;;;;;;;2.96;100.00;96496.63;5043950;27;105564;-65
2022/12/02 02:36:14;;;;;;;54.10;26.30;;;;;;;3.02;100.00;96498.47;5044381;27;101876;-65
2022/12/02 02:38:42;;;;;;;51.43;26.47;;;;;;;3.03;100.00;96489.59;5044151;27;105956;-65
2022/12/02 02:41:12;;;;;;;52.57;27.03;;;;;;;3.03;100.00;96488.75;5043769;27;105176;-65
2022/12/02 02:43:40;;;;;;;52.60;25.57;;;;;;;3.03;100.00;96488.75;5044194;27;102048;-65
2022/12/02 02:46:08;;;;;;;54.27;27.67;;;;;;;3.01;100.00;96486.34;5047142;27;104825;-65
2022/12/02 02:48:39;;;;;;;51.50;26.37;;;;;;;3.03;100.00;96486.97;5044355;27;102072;-65
2022/12/02 02:51:08;;;;;;;50.40;26.93;;;;;;;3.00;100.00;96489.19;5044181;27;105188;-65
2022/12/02 02:53:37;;;;;;;55.10;28.43;;;;;;;3.05;100.00;96478.84;5043425;27;105450;-65
2022/12/02 02:56:06;;;;;;;54.47;27.33;;;;;;;3.18;100.00;96484.13;5043501;27;101984;-65
2022/12/02 02:58:37;;;;;;;54.57;27.50;;;;;;;3.18;100.00;96476.25;5044127;27;105169;-65
2022/12/02 03:01:09;;;;;;;51.57;26.67;;;;;;;3.11;100.00;96481.50;5043238;27;105457;-65
2022/12/02 03:03:41;;;;;;;44.93;24.70;;;;;;;3.08;100.00;96475.84;5043493;27;101835;-65
2022/12/02 03:06:12;;;;;;;51.33;26.57;;;;;;;3.07;100.00;96476.84;5043855;27;105344;-65
2022/12/02 03:08:43;;;;;;;57.93;28.00;;;;;;;3.04;100.00;96478.06;5046842;27;105843;-65
2022/12/02 03:11:11;;;;;;;55.57;27.37;;;;;;;3.00;100.00;96473.41;5043849;27;105120;-65
2022/12/02 03:13:42;;;;;;;55.20;29.17;;;;;;;2.98;100.00;96467.53;5040932;27;102696;-65
2022/12/02 03:16:14;;;;;;;58.93;28.97;;;;;;;2.96;100.00;96469.56;5030125;28;101825;-65
2022/12/02 03:18:43;;;;;;;56.77;27.13;;;;;;;2.94;100.00;96468.94;5031849;27;102304;-65
2022/12/02 03:21:11;;;;;;;48.60;26.13;;;;;;;2.94;100.00;96466.31;5031068;27;102761;-65
2022/12/02 03:23:39;;;;;;;52.40;27.87;;;;;;;2.95;100.00;96466.13;5030108;28;101935;-65
2022/12/02 03:26:07;;;;;;;57.80;28.23;;;;;;;2.97;100.00;96468.56;5031793;27;102862;-65
2022/12/02 03:28:34;;;;;;;55.00;27.60;;;;;;;3.01;100.00;96470.56;5030631;27;102536;-65
2022/12/02 03:31:03;;;;;;;53.30;27.80;;;;;;;3.07;100.00;96468.97;5034830;27;101847;-65
2022/12/02 03:33:33;;;;;;;55.53;28.63;;;;;;;3.05;100.00;96470.97;5030941;27;102856;-65
2022/12/02 03:36:00;;;;;;;55.80;28.03;;;;;;;2.99;100.00;96467.34;5029445;28;101845;-65
2022/12/02 03:38:28;;;;;;;56.57;28.03;;;;;;;3.03;100.00;96465.94;5029738;28;105065;-65
2022/12/02 03:40:55;;;;;;;52.23;27.17;;;;;;;3.04;100.00;96470.19;5030776;27;102454;-65
2022/12/02 03:43:24;;;;;;;50.80;27.10;;;;;;;3.03;100.00;96463.31;5029796;28;102063;-65
2022/12/02 03:45:52;;;;;;;51.33;26.57;;;;;;;3.06;100.00;96457.66;5031267;28;102871;-65
2022/12/02 03:48:21;;;;;;;56.63;27.47;;;;;;;3.01;100.00;96459.28;5030737;27;102630;-65
2022/12/02 03:50:50;;;;;;;53.67;28.13;;;;;;;3.01;100.00;96449.56;5031201;27;101806;-65
2022/12/02 03:53:17;;;;;;;57.50;27.63;;;;;;;3.05;100.00;96450.78;5032445;28;105740;-65
2022/12/02 03:55:44;;;;;;;56.27;28.53;;;;;;;3.09;100.00;96446.75;5029562;28;101989;-65
2022/12/02 03:58:10;;;;;;;54.83;27.57;;;;;;;3.08;100.00;96447.75;5030959;27;102449;-65
2022/12/02 04:00:38;;;;;;;59.87;28.43;;;;;;;3.11;100.00;96443.94;5028990;28;105935;-65
2022/12/02 04:03:06;;;;;;;55.07;28.13;;;;;;;3.06;100.00;96447.13;5030199;27;101957;-65
2022/12/02 04:05:34;;;;;;;56.27;28.80;;;;;;;3.03;100.00;96446.75;5029703;28;105145;-65
2022/12/02 04:08:01;;;;;;;55.97;28.13;;;;;;;3.08;100.00;96439.06;5028875;28;105360;-65
2022/12/02 04:10:27;;;;;;;56.63;28.63;;;;;;;3.08;100.00;96445.13;5030890;28;101910;-65
2022/12/02 04:12:54;;;;;;;62.97;31.27;;;;;;;3.00;100.00;96436.66;5029330;28;103695;-65
2022/12/02 04:15:21;;;;;;;54.07;27.20;;;;;;;3.02;100.00;96439.88;5031972;28;101877;-65
2022/12/02 04:17:48;;;;;;;55.60;28.70;;;;;;;3.00;100.00;96442.69;5029208;28;103534;-65
2022/12/02 04:20:15;;;;;;;56.47;29.07;;;;;;;2.93;100.00;96436.63;5028716;28;103722;-65
2022/12/02 04:22:49;;;;;;;59.10;28.10;;;;;;;2.91;100.00;96445.72;5029305;28;101854;-65
2022/12/02 04:25:16;;;;;;;55.63;28.60;;;;;;;2.88;100.00;96438.25;5028611;27;105258;-65
2022/12/02 04:27:43;;;;;;;56.60;29.40;;;;;;;2.87;100.00;96441.88;5029640;27;102837;-65
2022/12/02 04:30:11;;;;;;;57.53;29.43;;;;;;;2.88;100.00;96443.50;5029093;28;101971;-65
2022/12/02 04:32:38;;;;;;;54.50;27.70;;;;;;;2.91;100.00;96445.72;5030521;28;101953;-65
2022/12/02 04:35:05;;;;;;;57.97;28.90;;;;;;;2.87;100.00;96442.69;5033357;27;103016;-65
2022/12/02 04:37:32;;;;;;;57.97;28.07;;;;;;;2.85;100.00;96443.91;5030563;27;102601;-65
2022/12/02 04:40:01;;;;;;;62.40;30.23;;;;;;;2.86;100.00;96437.66;5028446;28;105816;-65
2022/12/02 04:42:28;;;;;;;56.77;29.40;;;;;;;2.93;100.00;96446.31;5030316;27;101889;-65
2022/12/02 04:44:55;;;;;;;59.47;28.53;;;;;;;2.93;100.00;96438.44;5030207;27;102970;-65
2022/12/02 04:47:22;;;;;;;60.20;28.30;;;;;;;2.93;100.00;96438.44;5028379;28;105359;-65
2022/12/02 04:49:49;;;;;;;63.90;30.50;;;;;;;2.88;100.00;96433.81;5028787;28;102054;-65
2022/12/02 04:52:16;;;;;;;58.27;29.23;;;;;;;2.90;100.00;96437.03;5028943;28;105130;-65
2022/12/02 04:54:43;;;;;;;55.87;28.37;;;;;;;2.98;100.00;96433.41;5029901;27;102737;-65
2022/12/02 04:57:11;;;;;;;59.33;30.27;;;;;;;2.91;100.00;96430.78;5033329;27;102069;-65
2022/12/02 04:59:38;;;;;;;62.63;29.97;;;;;;;2.92;100.00;96424.53;5029601;27;102472;-65
2022/12/02 05:02:05;;;;;;;61.87;30.37;;;;;;;2.81;100.00;96433.00;5028147;28;101885;-65
2022/12/02 05:04:32;;;;;;;59.13;28.97;;;;;;;2.84;100.00;96432.59;5028245;28;104983;-65
2022/12/02 05:07:00;;;;;;;58.93;29.23;;;;;;;2.85;100.00;96422.91;5028614;28;105366;-65
2022/12/02 05:09:27;;;;;;;58.90;28.83;;;;;;;2.86;100.00;96433.22;5030241;27;101946;-64
2022/12/02 05:11:54;;;;;;;60.17;28.60;;;;;;;2.92;100.00;96428.94;5028501;28;103471;-65
2022/12/02 05:14:23;;;;;;;58.43;28.53;;;;;;;2.94;100.00;96426.94;5027877;28;105626;-65
2022/12/02 05:16:50;;;;;;;60.80;29.97;;;;;;;2.96;100.00;96427.56;5029754;27;101936;-65
2022/12/02 05:19:18;;;;;;;58.00;28.90;;;;;;;2.98;100.00;96428.16;5031437;28;105413;-65
2022/12/02 05:21:45;;;;;;;62.53;30.53;;;;;;;2.96;100.00;96425.72;5029779;28;101855;-65
2022/12/02 05:24:12;;;;;;;61.97;31.13;;;;;;;2.90;100.00;96423.91;5030036;27;102836;-65
2022/12/02 05:26:39;;;;;;;63.97;31.07;;;;;;;2.90;100.00;96428.38;5027731;28;105720;-65
2022/12/02 05:29:07;;;;;;;59.27;30.17;;;;;;;2.83;100.00;96425.72;5028690;28;101893;-65
2022/12/02 05:31:35;;;;;;;60.83;30.23;;;;;;;2.88;100.00;96427.72;5027984;28;103564;-65
2022/12/02 05:34:02;;;;;;;57.47;27.80;;;;;;;2.83;100.00;96428.34;5027635;28;105715;-65
2022/12/02 05:36:29;;;;;;;61.77;29.63;;;;;;;2.87;100.00;96426.13;5027869;28;101933;-65
2022/12/02 05:38:56;;;;;;;57.00;29.53;;;;;;;2.86;100.00;96420.09;5028049;28;105110;-65
2022/12/02 05:41:23;;;;;;;61.37;30.30;;;;;;;2.91;100.00;96427.34;5030562;28;105272;-65
2022/12/02 05:43:50;;;;;;;58.10;29.97;;;;;;;2.90;100.00;96431.00;5027942;28;105151;-65
2022/12/02 05:46:19;;;;;;;62.23;30.03;;;;;;;2.89;100.00;96429.38;5028807;27;103102;-65
2022/12/02 05:48:50;;;;;;;63.37;30.57;;;;;;;2.96;100.00;96432.81;5027802;28;101984;-65
2022/12/02 05:51:20;;;;;;;61.03;29.77;;;;;;;3.00;100.00;96428.78;5028017;28;104864;-65
2022/12/02 05:53:50;;;;;;;60.13;30.30;;;;;;;3.00;100.00;96431.41;5027591;28;104706;-65
2022/12/02 05:56:24;;;;;;;61.47;28.70;;;;;;;2.97;100.00;96439.66;5027886;28;101845;-65
2022/12/02 05:58:51;;;;;;;56.67;29.03;;;;;;;2.87;100.00;96434.81;5029387;27;102512;-65
2022/12/02 06:01:22;;;;;;;66.13;32.27;;;;;;;2.87;100.00;96431.38;5027116;28;105269;-65
2022/12/02 06:03:51;;;;;;;66.03;32.47;;;;;;;2.93;100.00;96433.19;5030473;28;101890;-65
2022/12/02 06:06:22;;;;;;;61.40;30.57;;;;;;;2.99;100.00;96435.00;5028473;27;103185;-65
2022/12/02 06:08:49;;;;;;;58.53;29.70;;;;;;;2.93;100.00;96433.19;5029500;27;101757;-65
2022/12/02 06:11:37;;;;;;;61.40;30.87;;;;;;;2.95;100.00;96439.06;5028967;27;102252;-65
2022/12/02 06:14:14;;;;;;;75.43;36.37;;;;;;;2.91;100.00;96433.41;5027290;28;106527;-65
2022/12/02 06:16:46;;;;;;;61.20;30.00;;;;;;;2.94;100.00;96433.00;5029326;28;101833;-65
2022/12/02 06:19:22;;;;;;;61.73;30.23;;;;;;;2.87;100.00;96440.06;5027575;28;105542;-65
2022/12/02 06:21:49;;;;;;;60.80;30.27;;;;;;;2.85;100.00;96428.16;5028636;28;102540;-65
2022/12/02 06:24:17;;;;;;;65.03;30.67;;;;;;;2.86;100.00;96435.84;5032290;28;101792;-65
2022/12/02 06:26:44;;;;;;;62.13;30.93;;;;;;;2.91;100.00;96429.97;5028422;27;102581;-65
2022/12/02 06:29:17;;;;;;;61.10;30.80;;;;;;;2.91;100.00;96433.41;5027459;28;102094;-65
2022/12/02 06:31:44;;;;;;;60.43;31.00;;;;;;;2.93;100.00;96427.94;5028951;28;102453;-65
2022/12/02 06:34:30;;;;;;;62.73;30.27;;;;;;;2.93;100.00;96428.75;5028281;27;102574;-65
2022/12/02 06:36:58;;;;;;;66.23;32.00;;;;;;;3.02;100.00;96426.75;5027297;28;101854;-65
2022/12/02 06:39:25;;;;;;;61.30;29.43;;;;;;;3.04;100.00;96432.59;5028660;27;102483;-65
2022/12/02 06:41:54;;;;;;;58.10;28.80;;;;;;;2.96;100.00;96430.97;5027035;28;105391;-65
2022/12/02 06:47:52;;;;;;;72.60;33.27;;;;;;;2.97;100.00;96432.59;5031778;27;102632;-65
2022/12/02 06:50:28;;;;;;;62.10;29.93;;;;;;;2.95;100.00;96433.81;4971972;28;101979;-65
2022/12/02 06:53:07;;;;;;;62.23;30.87;;;;;;;2.90;100.00;96431.78;5019613;28;105375;-65
2022/12/02 06:55:36;;;;;;;57.67;29.63;;;;;;;2.96;100.00;96430.97;5031657;27;102652;-65
2022/12/02 06:58:29;;;;;;;71.87;31.33;;;;;;;2.98;100.00;96439.47;5031470;28;101956;-65
2022/12/02 07:01:12;;;;;;;69.07;31.80;;;;;;;2.92;100.00;96435.03;5032153;27;102292;-65
2022/12/02 07:03:43;;;;;;;59.83;29.37;;;;;;;2.94;100.00;96434.81;5030743;27;102760;-65
2022/12/02 07:06:15;;;;;;;71.07;32.93;;;;;;;2.98;100.00;96428.16;5032032;27;101751;-65
2022/12/02 07:08:42;;;;;;;66.30;30.90;;;;;;;3.04;100.00;96427.34;5031448;27;102288;-65
2022/12/02 07:11:19;;;;;;;69.60;32.37;;;;;;;3.02;100.00;96429.38;5034862;27;102907;-65
2022/12/02 07:13:46;;;;;;;65.83;32.60;;;;;;;3.03;100.00;96430.97;5030341;28;105179;-65
2022/12/02 07:16:32;;;;;;;60.53;28.80;;;;;;;3.16;100.00;96433.63;5031467;27;103088;-65
2022/12/02 07:19:00;;;;;;;65.47;30.70;;;;;;;3.19;100.00;96441.91;5031603;27;101696;-65
2022/12/02 07:21:29;;;;;;;61.03;29.50;;;;;;;3.23;100.00;96437.81;5031567;27;102206;-65
2022/12/02 07:23:56;;;;;;;65.40;30.83;;;;;;;3.21;100.00;96433.78;5029571;28;105833;-65
2022/12/02 07:26:24;;;;;;;61.53;31.20;;;;;;;3.19;100.00;96435.81;5029959;28;101897;-65
2022/12/02 07:28:56;;;;;;;62.20;31.00;;;;;;;3.30;100.00;96429.94;5030146;28;105557;-65
2022/12/02 07:31:27;;;;;;;62.80;30.43;;;;;;;3.22;100.00;96432.81;5030832;28;102617;-65
2022/12/02 07:33:54;;;;;;;60.43;30.63;;;;;;;3.12;100.00;96437.66;5035022;27;101762;-65
2022/12/02 07:36:22;;;;;;;68.40;31.90;;;;;;;3.10;100.00;96439.66;5029429;28;104833;-65
2022/12/02 07:38:50;;;;;;;60.77;30.80;;;;;;;3.15;100.00;96435.44;5031536;27;101744;-65
2022/12/02 07:41:18;;;;;;;64.17;30.27;;;;;;;3.18;100.00;96435.00;5031375;28;102905;-65
2022/12/02 07:43:47;;;;;;;60.43;29.17;;;;;;;3.26;100.00;96434.81;5029122;28;105886;-65
2022/12/02 07:46:14;;;;;;;61.43;29.73;;;;;;;3.34;100.00;96439.06;5029549;28;101903;-65
2022/12/02 07:48:41;;;;;;;64.70;30.30;;;;;;;3.31;100.00;96431.56;5030020;28;105520;-65
2022/12/02 07:51:08;;;;;;;65.97;30.87;;;;;;;3.31;100.00;96435.00;5030571;27;103164;-65
2022/12/02 07:53:35;;;;;;;64.77;31.33;;;;;;;3.38;100.00;96435.00;5030868;27;102132;-65
2022/12/02 07:56:03;;;;;;;59.40;28.67;;;;;;;3.38;100.00;96435.00;5032705;28;105572;-65
2022/12/02 07:58:30;;;;;;;60.83;29.07;;;;;;;3.41;100.00;96437.22;5031040;27;101811;-65
2022/12/02 08:00:57;;;;;;;60.57;30.30;;;;;;;3.40;100.00;96427.72;5030814;27;102904;-65
2022/12/02 08:03:24;;;;;;;63.47;30.97;;;;;;;3.38;100.00;96433.16;5028603;28;104143;-65
2022/12/02 08:05:51;;;;;;;71.83;34.07;;;;;;;3.40;100.00;96433.78;5030624;27;101791;-65
2022/12/02 08:08:18;;;;;;;99.47;42.97;;;;;;;3.38;100.00;96432.38;5030977;27;102261;-65
2022/12/02 08:10:45;;;;;;;78.43;38.13;;;;;;;3.32;100.00;96436.63;5030418;27;102627;-65
2022/12/02 08:13:13;;;;;;;71.70;34.27;;;;;;;3.34;100.00;96429.31;5030896;27;101811;-65
2022/12/02 08:15:40;;;;;;;73.30;35.57;;;;;;;3.41;100.00;96432.78;5029393;28;105200;-65
2022/12/02 08:18:07;;;;;;;72.03;37.17;;;;;;;3.42;100.00;96436.19;5032218;28;106043;-65
2022/12/02 08:20:34;;;;;;;67.27;32.57;;;;;;;3.49;100.00;96431.75;5029183;28;103991;-65
2022/12/02 08:23:04;;;;;;;71.90;32.30;;;;;;;3.58;100.00;96425.25;5030155;27;102910;-65
2022/12/02 08:25:31;;;;;;;67.57;32.53;;;;;;;3.49;100.00;96431.75;5030612;28;101868;-65
2022/12/02 08:27:58;;;;;;;68.40;32.83;;;;;;;3.47;100.00;96431.94;5029123;28;104785;-65
2022/12/02 08:30:26;;;;;;;66.07;31.40;;;;;;;3.33;100.00;96432.19;5028543;28;105305;-65
2022/12/02 08:32:54;;;;;;;60.23;31.90;;;;;;;3.32;100.00;96430.53;5029096;28;102229;-65
2022/12/02 08:35:21;;;;;;;67.67;31.63;;;;;;;3.38;100.00;96429.75;5030339;28;103973;-65
2022/12/02 08:37:47;;;;;;;62.60;31.50;;;;;;;3.44;100.00;96428.94;5032150;28;105734;-65
2022/12/02 08:40:15;;;;;;;58.97;31.20;;;;;;;3.49;100.00;96435.16;5030370;28;102476;-65
2022/12/02 08:42:42;;;;;;;59.07;29.10;;;;;;;3.50;100.00;96438.63;5029954;27;102103;-65
2022/12/02 08:45:10;;;;;;;61.97;29.57;;;;;;;3.56;100.00;96432.53;5030538;27;101731;-65
2022/12/02 08:47:38;;;;;;;64.03;31.30;;;;;;;3.38;100.00;96435.00;5030468;27;102789;-65
2022/12/02 08:50:07;;;;;;;61.23;30.87;;;;;;;3.44;100.00;96434.97;5028233;28;105817;-65
2022/12/02 08:52:34;;;;;;;58.07;29.90;;;;;;;3.39;100.00;96432.16;5030011;27;102216;-65
2022/12/02 08:55:01;;;;;;;54.70;29.33;;;;;;;3.37;100.00;96431.56;5028769;28;104885;-65
2022/12/02 08:57:28;;;;;;;60.20;30.97;;;;;;;3.39;100.00;96423.47;5029669;27;103021;-65
2022/12/02 08:59:54;;;;;;;60.37;29.80;;;;;;;3.45;100.00;96430.53;5033572;28;101854;-65
2022/12/02 09:02:22;;;;;;;61.37;29.90;;;;;;;3.42;100.00;96429.13;5028883;27;102718;-65
2022/12/02 09:04:51;;;;;;;61.40;29.50;;;;;;;3.47;100.00;96424.06;5029591;27;101953;-65
2022/12/02 09:07:18;;;;;;;56.07;29.07;;;;;;;3.56;100.00;96419.41;5029884;27;102496;-65
2022/12/02 09:09:45;;;;;;;54.27;29.00;;;;;;;3.47;100.00;96418.81;5028053;28;105986;-65
2022/12/02 09:12:13;;;;;;;64.03;30.73;;;;;;;3.40;100.00;96419.84;5029309;27;102284;-65
2022/12/02 09:14:39;;;;;;;61.90;29.90;;;;;;;3.43;100.00;96416.78;5030076;28;101949;-65
2022/12/02 09:17:06;;;;;;;57.43;30.50;;;;;;;3.36;100.00;96419.44;5027536;28;107009;-65
2022/12/02 09:19:34;;;;;;;56.27;28.97;;;;;;;3.33;100.00;96419.03;5029689;27;101902;-65
2022/12/02 09:22:02;;;;;;;60.20;29.57;;;;;;;3.35;100.00;96419.63;5032665;27;102312;-65
2022/12/02 09:24:30;;;;;;;60.63;29.57;;;;;;;3.39;100.00;96420.84;5029727;27;101662;-65
2022/12/02 09:26:57;;;;;;;62.03;30.10;;;;;;;3.44;100.00;96428.94;5028199;28;105250;-65
2022/12/02 09:29:25;;;;;;;64.37;31.57;;;;;;;3.37;100.00;96420.22;5027691;28;105974;-65
2022/12/02 09:31:52;;;;;;;63.23;31.00;;;;;;;3.36;100.00;96418.63;5028013;28;102251;-65
2022/12/02 09:34:19;;;;;;;60.47;30.33;;;;;;;3.35;100.00;96420.47;5028149;28;105216;-65
2022/12/02 09:36:46;;;;;;;59.93;29.00;;;;;;;3.34;100.00;96412.78;5027649;28;105268;-65
2022/12/02 09:39:14;;;;;;;56.67;28.83;;;;;;;3.22;100.00;96412.56;5029662;27;101691;-65
2022/12/02 09:41:42;;;;;;;54.67;28.63;;;;;;;3.27;100.00;96412.78;5029466;27;102493;-65
2022/12/02 09:44:09;;;;;;;58.80;29.67;;;;;;;3.34;100.00;96418.03;5032358;27;102700;-65
2022/12/02 09:46:36;;;;;;;60.27;29.83;;;;;;;3.32;100.00;96415.59;5027960;28;105051;-65
2022/12/02 09:49:03;;;;;;;60.73;30.97;;;;;;;3.34;100.00;96407.50;5027649;28;104572;-65
2022/12/02 09:51:32;;;;;;;58.43;29.10;;;;;;;3.43;100.00;96406.25;5029399;27;101828;-63
2022/12/02 09:54:00;;;;;;;61.27;31.03;;;;;;;3.41;100.00;96403.03;5025738;28;105446;-63
2022/12/02 09:56:29;;;;;;;60.30;29.70;;;;;;;3.51;100.00;96398.16;5027374;27;102469;-62
2022/12/02 09:58:57;;;;;;;56.87;28.47;;;;;;;3.33;100.00;96405.91;5028159;27;101934;-62
2022/12/02 10:01:25;;;;;;;52.53;28.13;;;;;;;3.33;100.00;96405.91;5026749;28;105423;-61
2022/12/02 10:03:53;;;;;;;57.63;28.87;;;;;;;3.39;100.00;96399.81;5027779;27;103127;-64
2022/12/02 10:06:25;;;;;;;54.03;28.60;;;;;;;3.43;100.00;96396.56;5031451;27;102052;-64
2022/12/02 10:08:56;;;;;;;56.13;28.00;;;;;;;3.45;100.00;96399.78;5027332;28;104772;-63
2022/12/02 10:11:27;;;;;;;56.43;28.33;;;;;;;3.48;100.00;96398.56;5029297;27;101673;-63
2022/12/02 10:13:59;;;;;;;49.67;26.03;;;;;;;3.44;100.00;96398.19;5029133;28;102880;-63
2022/12/02 10:16:29;;;;;;;50.73;28.30;;;;;;;3.47;100.00;96395.16;5028720;28;103143;-64
2022/12/02 10:19:03;;;;;;;49.93;26.40;;;;;;;3.34;100.00;96389.13;5028982;27;101814;-63
2022/12/02 10:21:32;;;;;;;50.70;26.53;;;;;;;3.46;100.00;96390.91;5027709;27;104471;-63
2022/12/02 10:24:06;;;;;;;51.33;26.07;;;;;;;3.39;100.00;96389.31;5027760;27;104927;-63
2022/12/02 10:26:47;;;;;;;49.30;25.90;;;;;;;3.44;100.00;96385.03;5031198;28;101872;-63
2022/12/02 10:29:27;;;;;;;49.43;26.00;;;;;;;3.54;100.00;96389.84;5035651;28;102331;-63
2022/12/02 10:32:04;;;;;;;45.97;26.43;;;;;;;3.50;100.00;96384.22;5032429;27;102128;-63
2022/12/02 10:34:34;;;;;;;41.47;23.10;;;;;;;3.42;100.00;96384.44;5032579;28;102351;-63
2022/12/02 10:37:19;;;;;;;44.53;24.40;;;;;;;3.31;100.00;96382.44;5031796;27;102535;-63
2022/12/02 10:39:47;;;;;;;43.97;24.60;;;;;;;3.45;100.00;96377.97;5032606;27;101741;-63
2022/12/02 10:42:20;;;;;;;45.53;24.33;;;;;;;3.29;100.00;96376.56;5030874;27;104792;-63
2022/12/02 10:45:11;;;;;;;43.00;24.00;;;;;;;3.37;100.00;96373.75;5031864;27;102755;-63
2022/12/02 10:47:39;;;;;;;45.57;24.57;;;;;;;3.43;100.00;96377.34;5031934;27;101961;-63
2022/12/02 10:50:18;;;;;;;42.53;23.83;;;;;;;3.36;100.00;96373.94;5035111;28;102915;-63
2022/12/02 10:52:59;;;;;;;42.47;23.30;;;;;;;3.39;100.00;96373.53;5032615;27;101682;-63
2022/12/02 10:55:32;;;;;;;40.90;22.57;;;;;;;3.38;100.00;96372.72;5030799;28;106179;-63
2022/12/02 10:57:59;;;;;;;44.70;24.30;;;;;;;3.41;100.00;96372.31;5030346;27;104685;-63
2022/12/02 11:00:28;;;;;;;37.70;22.30;;;;;;;3.52;100.00;96371.69;5031939;27;101867;-63
2022/12/02 11:02:59;;;;;;;43.93;25.67;;;;;;;3.50;100.00;96370.28;5031521;28;102649;-63
2022/12/02 11:05:54;;;;;;;48.50;24.97;;;;;;;3.51;100.00;96364.00;5031490;28;102417;-63
2022/12/02 11:08:24;;;;;;;41.43;23.27;;;;;;;3.55;100.00;96362.56;5032059;28;101721;-63
2022/12/02 11:11:08;;;;;;;39.00;22.93;;;;;;;3.58;100.00;96368.22;5030414;28;103535;-65
2022/12/02 11:13:59;;;;;;;48.40;24.70;;;;;;;3.61;100.00;96361.75;5033114;28;104701;-65
2022/12/02 11:17:05;;;;;;;43.60;23.83;;;;;;;3.30;100.00;96357.19;5030489;28;105315;-65
2022/12/02 11:19:44;;;;;;;38.80;22.33;;;;;;;3.35;100.00;96356.56;5029582;28;105648;-65
2022/12/02 11:22:48;;;;;;;42.23;22.57;;;;;;;3.34;100.00;96360.22;5031638;27;101941;-65
2022/12/02 11:25:53;;;;;;;42.87;22.57;;;;;;;3.21;100.00;96354.97;5029675;28;105606;-65
2022/12/02 11:28:46;;;;;;;45.47;23.20;;;;;;;3.08;100.00;96355.81;5030349;27;102749;-65